createdAt,value
2023-02-11T00:01:30.248Z,103303.66
2023-02-11T00:04:00.338Z,103232.22
2023-02-11T00:06:31.918Z,103291.81
2023-02-11T00:09:00.843Z,103296.19
2023-02-11T00:11:30.777Z,103288.28
2023-02-11T00:14:00.366Z,103284.31
2023-02-11T00:16:29.400Z,103285.25
2023-02-11T00:18:58.806Z,103271.81
2023-02-11T00:21:29.363Z,103284.09
2023-02-11T00:24:00.297Z,103271.63
2023-02-11T00:26:32.470Z,103272.69
2023-02-11T00:29:02.116Z,103291.72
2023-02-11T00:31:33.295Z,103286.34
2023-02-11T00:34:01.771Z,103270.63
2023-02-11T00:36:31.990Z,103266.28
2023-02-11T00:39:01.225Z,103267.97
2023-02-11T00:41:30.089Z,103256.53
2023-02-11T00:44:01.046Z,103252.09
2023-02-11T00:46:29.902Z,103245.56
2023-02-11T00:48:58.306Z,103250.16
2023-02-11T00:51:28.751Z,103232.25
2023-02-11T00:53:59.236Z,103245.00
2023-02-11T00:56:28.240Z,103257.50
2023-02-11T00:58:57.789Z,103255.78
2023-02-11T01:01:26.846Z,103249.69
2023-02-11T01:03:55.237Z,103243.66
2023-02-11T01:06:25.229Z,103257.88
2023-02-11T01:08:53.549Z,103267.59
2023-02-11T01:11:25.053Z,103265.59
2023-02-11T01:13:53.656Z,103262.94
2023-02-11T01:16:23.474Z,103242.63
2023-02-11T01:18:53.662Z,103247.03
2023-02-11T01:21:22.067Z,103243.53
2023-02-11T01:23:53.489Z,103240.84
2023-02-11T01:26:23.145Z,103250.69
2023-02-11T01:28:51.960Z,103250.91
2023-02-11T01:31:21.307Z,103259.78
2023-02-11T01:33:50.253Z,103126.88
2023-02-11T01:36:18.621Z,103247.44
2023-02-11T01:38:46.917Z,103245.66
2023-02-11T01:41:15.965Z,103246.38
2023-02-11T01:43:48.973Z,103237.97
2023-02-11T01:46:29.795Z,103247.03
2023-02-11T01:49:05.695Z,103249.72
2023-02-11T01:51:39.992Z,103243.44
2023-02-11T01:54:30.220Z,103232.50
2023-02-11T01:57:18.817Z,103225.44
2023-02-11T01:59:58.237Z,103225.09
2023-02-11T02:02:35.931Z,103221.31
2023-02-11T02:05:18.870Z,103226.56
2023-02-11T02:07:57.691Z,103232.84
2023-02-11T02:10:28.904Z,103225.31
2023-02-11T02:12:57.764Z,103237.13
2023-02-11T02:15:31.139Z,103231.03
2023-02-11T02:18:06.972Z,103143.81
2023-02-11T02:21:30.722Z,103217.53
2023-02-11T02:24:39.740Z,103230.66
2023-02-11T02:27:33.445Z,103100.16
2023-02-11T02:30:37.117Z,103212.66
2023-02-11T02:33:22.932Z,103204.53
2023-02-11T02:36:05.435Z,103226.09
2023-02-11T02:38:39.630Z,103241.06
2023-02-11T02:41:11.604Z,103236.50
2023-02-11T02:43:45.497Z,103239.81
2023-02-11T02:46:17.335Z,103230.38
2023-02-11T02:48:49.514Z,103244.88
2023-02-11T02:51:35.733Z,103139.44
2023-02-11T02:54:30.526Z,103239.78
2023-02-11T02:57:11.146Z,103244.44
2023-02-11T02:59:59.017Z,103255.06
2023-02-11T03:02:33.010Z,103243.56
2023-02-11T03:05:09.836Z,103239.91
2023-02-11T03:07:45.588Z,103230.03
2023-02-11T03:10:20.406Z,103228.34
2023-02-11T03:12:51.039Z,103220.28
2023-02-11T03:15:20.178Z,103236.78
2023-02-11T03:17:53.340Z,103169.34
2023-02-11T03:20:24.454Z,103129.59
2023-02-11T03:22:57.049Z,103161.63
2023-02-11T03:25:31.656Z,103231.38
2023-02-11T03:28:10.433Z,103225.94
2023-02-11T03:30:47.035Z,103181.69
2023-02-11T03:33:25.501Z,103147.13
2023-02-11T03:35:58.197Z,103206.78
2023-02-11T03:38:32.048Z,103204.88
2023-02-11T03:41:02.028Z,103227.38
2023-02-11T03:43:36.800Z,103202.19
2023-02-11T03:46:06.278Z,103221.25
2023-02-11T03:48:40.136Z,103220.22
2023-02-11T03:51:12.820Z,103054.72
2023-02-11T03:53:44.593Z,103204.03
2023-02-11T03:56:19.952Z,103209.03
2023-02-11T03:58:49.589Z,102858.69
2023-02-11T04:01:18.272Z,103018.78
2023-02-11T04:03:46.754Z,103164.16
2023-02-11T04:06:19.324Z,103177.47
2023-02-11T04:08:47.895Z,103216.97
2023-02-11T04:11:17.612Z,103113.63
2023-02-11T04:13:46.081Z,103217.31
2023-02-11T04:16:14.634Z,103190.13
2023-02-11T04:18:43.145Z,102984.38
2023-02-11T04:21:11.663Z,103212.75
2023-02-11T04:23:41.584Z,103200.16
2023-02-11T04:26:10.103Z,103212.88
2023-02-11T04:28:38.640Z,103184.13
2023-02-11T04:31:07.426Z,103204.97
2023-02-11T04:33:35.969Z,103166.88
2023-02-11T04:36:07.664Z,103168.13
2023-02-11T04:38:36.252Z,103138.41
2023-02-11T04:41:06.642Z,103213.88
2023-02-11T04:43:34.988Z,103204.00
2023-02-11T04:46:03.461Z,103192.22
2023-02-11T04:48:32.161Z,103168.84
2023-02-11T04:51:00.652Z,103210.28
2023-02-11T04:53:29.018Z,103125.59
2023-02-11T04:55:57.432Z,103216.47
2023-02-11T04:58:27.300Z,103212.81
2023-02-11T05:00:55.874Z,103200.41
2023-02-11T05:03:24.321Z,103164.38
2023-02-11T05:05:53.102Z,103113.06
2023-02-11T05:08:21.682Z,103196.19
2023-02-11T05:10:50.126Z,103160.75
2023-02-11T05:13:18.567Z,103191.31
2023-02-11T05:15:50.854Z,103187.72
2023-02-11T05:18:19.702Z,103197.19
2023-02-11T05:20:48.059Z,103092.78
2023-02-11T05:23:16.617Z,103126.97
2023-02-11T05:25:45.149Z,103202.47
2023-02-11T05:28:13.559Z,103176.81
2023-02-11T05:30:42.177Z,103224.88
2023-02-11T05:33:12.131Z,102971.91
2023-02-11T05:35:40.549Z,103227.63
2023-02-11T05:38:09.137Z,103223.16
2023-02-11T05:40:37.653Z,103215.03
2023-02-11T05:43:06.110Z,103220.53
2023-02-11T05:45:35.271Z,103082.91
2023-02-11T05:48:03.811Z,103191.38
2023-02-11T05:50:33.585Z,103232.66
2023-02-11T05:53:02.095Z,103198.38
2023-02-11T05:55:30.579Z,103232.53
2023-02-11T05:57:59.041Z,103232.81
2023-02-11T06:00:28.225Z,103228.63
2023-02-11T06:02:56.884Z,103227.22
2023-02-11T06:05:27.454Z,103179.38
2023-02-11T06:08:00.942Z,103267.78
2023-02-11T06:10:29.628Z,103196.50
2023-02-11T06:12:58.094Z,103220.34
2023-02-11T06:15:26.660Z,103210.38
2023-02-11T06:17:58.330Z,103196.97
2023-02-11T06:20:26.946Z,103220.63
2023-02-11T06:22:55.623Z,103184.91
2023-02-11T06:25:25.573Z,103227.78
2023-02-11T06:27:54.085Z,103160.78
2023-02-11T06:30:22.630Z,103199.91
2023-02-11T06:32:51.253Z,103221.63
2023-02-11T06:35:20.092Z,103202.31
2023-02-11T06:37:49.694Z,103236.56
2023-02-11T06:40:18.488Z,103207.16
2023-02-11T06:42:48.348Z,103209.97
2023-02-11T06:45:16.984Z,103234.22
2023-02-11T06:47:45.800Z,103201.75
2023-02-11T06:50:16.046Z,103140.44
2023-02-11T06:52:44.477Z,103244.78
2023-02-11T06:55:13.056Z,103228.28
2023-02-11T06:57:41.618Z,103242.91
2023-02-11T07:00:15.515Z,103200.34
2023-02-11T07:02:45.169Z,103249.66
2023-02-11T07:05:13.562Z,103242.06
2023-02-11T07:07:42.101Z,103216.91
2023-02-11T07:10:11.009Z,103242.91
2023-02-11T07:12:39.695Z,103224.97
2023-02-11T07:15:09.110Z,103246.69
2023-02-11T07:17:39.104Z,103253.69
2023-02-11T07:20:09.164Z,103200.53
2023-02-11T07:22:37.669Z,103265.28
2023-02-11T07:25:09.627Z,103264.47
2023-02-11T07:27:38.288Z,103230.81
2023-02-11T07:30:08.074Z,103106.50
2023-02-11T07:32:38.018Z,103267.19
2023-02-11T07:35:07.609Z,103225.19
2023-02-11T07:37:36.407Z,103226.13
2023-02-11T07:40:05.833Z,103210.91
2023-02-11T07:42:36.355Z,103282.13
2023-02-11T07:45:05.208Z,103278.34
2023-02-11T07:47:39.606Z,103274.00
2023-02-11T07:50:12.333Z,103278.34
2023-02-11T07:52:41.276Z,103255.56
2023-02-11T07:55:10.359Z,103339.81
2023-02-11T07:57:41.672Z,103274.97
2023-02-11T08:00:15.289Z,103262.44
2023-02-11T08:02:45.197Z,103285.75
2023-02-11T08:05:14.810Z,103251.16
2023-02-11T08:07:43.428Z,103210.00
2023-02-11T08:10:12.053Z,103267.94
2023-02-11T08:12:40.577Z,103284.22
2023-02-11T08:15:10.375Z,103275.09
2023-02-11T08:17:39.253Z,103291.66
2023-02-11T08:20:10.174Z,103228.81
2023-02-11T08:22:38.664Z,103286.03
2023-02-11T08:25:09.772Z,103264.72
2023-02-11T08:27:38.268Z,103300.53
2023-02-11T08:30:08.467Z,103307.78
2023-02-11T08:32:37.507Z,103302.06
2023-02-11T08:35:13.683Z,103298.13
2023-02-11T08:37:42.291Z,103305.38
2023-02-11T08:40:16.584Z,103282.78
2023-02-11T08:42:46.409Z,103315.19
2023-02-11T08:45:14.972Z,103325.56
2023-02-11T08:47:46.430Z,103233.28
2023-02-11T08:50:16.514Z,103308.03
2023-02-11T08:52:45.022Z,103294.94
2023-02-11T08:55:13.552Z,103303.56
2023-02-11T08:57:42.052Z,103343.25
2023-02-11T09:00:12.775Z,103336.41
2023-02-11T09:02:46.154Z,103333.72
2023-02-11T09:05:16.547Z,103331.38
2023-02-11T09:07:45.147Z,103275.44
2023-02-11T09:10:13.612Z,103280.78
2023-02-11T09:12:42.535Z,103335.19
2023-02-11T09:15:11.431Z,103261.78
2023-02-11T09:17:39.903Z,103339.59
2023-02-11T09:20:10.865Z,103297.72
2023-02-11T09:22:42.821Z,103315.63
2023-02-11T09:25:11.856Z,103339.19
2023-02-11T09:27:40.400Z,103325.81
2023-02-11T09:30:10.340Z,103336.69
2023-02-11T09:32:39.019Z,103322.00
2023-02-11T09:35:08.308Z,103343.56
2023-02-11T09:37:41.137Z,103343.88
2023-02-11T09:40:11.784Z,103297.72
2023-02-11T09:42:49.768Z,103350.16
2023-02-11T09:45:21.379Z,103349.41
2023-02-11T09:47:54.430Z,103361.13
2023-02-11T09:50:32.120Z,103353.41
2023-02-11T09:53:06.119Z,103337.03
2023-02-11T09:55:39.548Z,103348.34
2023-02-11T09:58:14.526Z,103334.09
2023-02-11T10:00:48.611Z,103357.69
2023-02-11T10:03:45.646Z,103361.63
2023-02-11T10:06:45.030Z,103352.09
2023-02-11T10:09:32.338Z,103359.19
2023-02-11T10:12:19.409Z,103365.78
2023-02-11T10:15:07.627Z,103363.69
2023-02-11T10:17:46.433Z,103371.66
2023-02-11T10:20:27.745Z,103277.38
2023-02-11T10:23:01.088Z,103393.78
2023-02-11T10:25:39.005Z,103383.69
2023-02-11T10:28:17.390Z,103393.88
2023-02-11T10:30:58.972Z,103370.81
2023-02-11T10:33:32.714Z,103407.13
2023-02-11T10:36:01.749Z,103389.03
2023-02-11T10:38:33.046Z,103418.84
2023-02-11T10:41:05.159Z,103416.25
2023-02-11T10:43:36.080Z,103422.41
2023-02-11T10:46:07.074Z,103417.75
2023-02-11T10:48:43.481Z,103375.25
2023-02-11T10:51:22.970Z,103418.94
2023-02-11T10:54:14.363Z,103430.81
2023-02-11T10:56:52.175Z,103378.59
2023-02-11T10:59:29.101Z,103428.75
2023-02-11T11:02:01.443Z,103424.66
2023-02-11T11:04:41.401Z,103426.75
2023-02-11T11:07:18.096Z,103416.44
2023-02-11T11:09:52.014Z,103409.03
2023-02-11T11:12:42.255Z,103413.06
2023-02-11T11:15:23.600Z,103413.63
2023-02-11T11:17:53.203Z,103398.78
2023-02-11T11:20:28.479Z,103441.72
2023-02-11T11:23:17.732Z,103464.81
2023-02-11T11:26:00.840Z,103418.44
2023-02-11T11:28:36.640Z,103442.53
2023-02-11T11:31:06.713Z,103433.22
2023-02-11T11:33:37.239Z,103423.78
2023-02-11T11:36:09.623Z,103418.19
2023-02-11T11:38:45.314Z,103352.91
2023-02-11T11:41:20.690Z,103370.69
2023-02-11T11:43:59.504Z,103405.84
2023-02-11T11:46:32.689Z,103388.38
2023-02-11T11:49:23.550Z,103443.47
2023-02-11T11:51:58.894Z,103444.94
2023-02-11T11:54:30.185Z,103425.19
2023-02-11T11:57:03.954Z,103438.94
2023-02-11T11:59:34.015Z,103356.97
2023-02-11T12:02:38.382Z,103368.75
2023-02-11T12:05:13.424Z,103440.78
2023-02-11T12:07:59.177Z,103435.94
2023-02-11T12:10:49.063Z,103329.66
2023-02-11T12:13:30.745Z,103441.16
2023-02-11T12:16:14.077Z,103447.78
2023-02-11T12:19:14.047Z,103452.09
2023-02-11T12:21:57.479Z,103447.91
2023-02-11T12:24:47.012Z,103462.22
2023-02-11T12:27:21.450Z,103448.44
2023-02-11T12:30:04.038Z,103423.44
2023-02-11T12:32:46.056Z,103445.41
2023-02-11T12:35:33.564Z,103419.44
2023-02-11T12:38:29.084Z,103413.72
2023-02-11T12:41:40.683Z,103444.84
2023-02-11T12:44:18.374Z,103445.47
2023-02-11T12:46:51.839Z,103408.91
2023-02-11T12:49:50.763Z,103394.44
2023-02-11T12:52:40.186Z,103367.09
2023-02-11T12:55:19.877Z,103373.34
2023-02-11T12:57:51.804Z,103351.22
2023-02-11T13:00:25.822Z,103455.75
2023-02-11T13:03:02.533Z,103427.09
2023-02-11T13:05:39.962Z,103312.84
2023-02-11T13:08:17.441Z,103341.84
2023-02-11T13:10:52.016Z,103452.84
2023-02-11T13:13:26.874Z,103357.44
2023-02-11T13:16:02.160Z,103367.38
2023-02-11T13:18:49.338Z,103440.59
2023-02-11T13:21:41.852Z,103381.25
2023-02-11T13:24:23.669Z,103408.38
2023-02-11T13:27:02.632Z,103432.69
2023-02-11T13:29:41.033Z,103435.91
2023-02-11T13:32:13.017Z,103438.44
2023-02-11T13:35:00.002Z,103432.84
2023-02-11T13:37:36.424Z,103434.63
2023-02-11T13:40:08.997Z,103429.44
2023-02-11T13:42:53.041Z,103429.69
2023-02-11T13:45:32.319Z,103391.84
2023-02-11T13:48:04.231Z,103421.72
2023-02-11T13:50:39.391Z,103252.59
2023-02-11T13:53:09.846Z,103371.78
2023-02-11T13:55:46.444Z,103425.88
2023-02-11T13:58:32.263Z,103424.03
2023-02-11T14:01:01.146Z,103364.25
2023-02-11T14:04:02.951Z,103423.66
2023-02-11T14:07:03.856Z,103428.16
2023-02-11T14:09:39.012Z,103330.06
2023-02-11T14:12:37.382Z,103402.91
2023-02-11T14:15:27.397Z,103426.31
2023-02-11T14:17:56.073Z,103429.44
2023-02-11T14:20:43.378Z,103110.50
2023-02-11T14:23:27.574Z,103429.94
2023-02-11T14:26:33.767Z,103380.38
2023-02-11T14:29:19.518Z,103428.34
2023-02-11T14:31:59.040Z,103423.16
2023-02-11T14:34:46.357Z,103440.25
2023-02-11T14:37:37.669Z,103439.72
2023-02-11T14:40:28.307Z,103344.81
2023-02-11T14:43:14.146Z,103425.22
2023-02-11T14:45:45.736Z,103337.88
2023-02-11T14:48:19.072Z,103431.41
2023-02-11T14:50:52.881Z,103371.03
2023-02-11T14:53:27.942Z,103423.16
2023-02-11T14:55:57.176Z,103437.19
2023-02-11T14:58:29.587Z,103460.19
2023-02-11T15:01:00.865Z,103426.22
2023-02-11T15:03:36.414Z,103365.22
2023-02-11T15:06:09.168Z,103423.84
2023-02-11T15:08:47.074Z,103435.69
2023-02-11T15:11:19.673Z,103447.38
2023-02-11T15:13:52.102Z,103435.78
2023-02-11T15:16:25.076Z,103453.16
2023-02-11T15:18:56.492Z,103451.38
2023-02-11T15:21:28.677Z,103461.50
2023-02-11T15:24:00.111Z,103459.16
2023-02-11T15:26:29.493Z,103355.47
2023-02-11T15:28:59.598Z,103132.84
2023-02-11T15:31:30.799Z,103462.56
2023-02-11T15:34:08.960Z,103460.59
2023-02-11T15:36:41.082Z,103462.41
2023-02-11T15:39:29.119Z,103464.03
2023-02-11T15:41:57.596Z,103463.78
2023-02-11T15:44:33.192Z,103460.47
2023-02-11T15:47:02.146Z,103156.50
2023-02-11T15:49:30.724Z,103453.19
2023-02-11T15:51:59.625Z,103471.84
2023-02-11T15:54:32.082Z,103354.69
2023-02-11T15:57:06.439Z,103430.03
2023-02-11T15:59:40.413Z,103452.06
2023-02-11T16:02:18.254Z,103456.94
2023-02-11T16:04:52.563Z,103406.06
2023-02-11T16:07:40.549Z,103458.00
2023-02-11T16:10:25.667Z,103412.97
2023-02-11T16:12:57.645Z,103456.72
2023-02-11T16:15:49.666Z,103470.31
2023-02-11T16:18:49.465Z,103449.59
2023-02-11T16:21:36.216Z,103482.56
2023-02-11T16:24:06.625Z,103472.81
2023-02-11T16:26:40.991Z,103479.06
2023-02-11T16:29:14.373Z,103410.09
2023-02-11T16:31:47.362Z,103478.72
2023-02-11T16:34:18.731Z,103402.97
2023-02-11T16:36:48.286Z,103498.09
2023-02-11T16:39:21.778Z,103503.00
2023-02-11T16:41:51.683Z,103498.50
2023-02-11T16:44:20.418Z,103498.56
2023-02-11T16:46:50.530Z,103503.00
2023-02-11T16:49:24.400Z,103490.19
2023-02-11T16:51:56.898Z,103431.03
2023-02-11T16:54:25.585Z,103524.38
2023-02-11T16:56:54.135Z,103467.53
2023-02-11T16:59:22.789Z,103445.03
2023-02-11T17:01:54.544Z,103495.06
2023-02-11T17:04:29.048Z,103513.94
2023-02-11T17:06:58.593Z,103519.25
2023-02-11T17:09:31.133Z,103523.44
2023-02-11T17:12:00.210Z,103518.91
2023-02-11T17:14:28.794Z,103531.47
2023-02-11T17:16:59.204Z,103536.78
2023-02-11T17:19:27.666Z,103503.44
2023-02-11T17:21:56.213Z,103530.91
2023-02-11T17:24:25.065Z,103515.09
2023-02-11T17:26:56.940Z,103511.09
2023-02-11T17:29:27.149Z,103506.88
2023-02-11T17:31:56.003Z,103499.88
2023-02-11T17:34:25.956Z,103538.41
2023-02-11T17:36:54.388Z,103521.94
2023-02-11T17:39:22.919Z,103515.47
2023-02-11T17:41:52.603Z,103511.91
2023-02-11T17:44:21.404Z,103441.22
2023-02-11T17:46:49.785Z,103550.63
2023-02-11T17:49:18.578Z,103486.06
2023-02-11T17:51:51.421Z,103551.41
2023-02-11T17:54:21.284Z,103541.38
2023-02-11T17:56:50.868Z,103557.41
2023-02-11T17:59:19.771Z,103565.66
2023-02-11T18:01:49.362Z,103551.63
2023-02-11T18:04:20.148Z,103543.72
2023-02-11T18:06:50.374Z,103504.75
2023-02-11T18:09:18.923Z,103566.44
2023-02-11T18:11:48.465Z,103309.84
2023-02-11T18:14:16.999Z,103485.59
2023-02-11T18:16:46.453Z,103488.94
2023-02-11T18:19:15.512Z,103419.56
2023-02-11T18:21:44.183Z,103524.88
2023-02-11T18:24:14.107Z,103574.28
2023-02-11T18:26:43.088Z,103574.81
2023-02-11T18:29:11.618Z,103572.84
2023-02-11T18:31:40.450Z,103580.00
2023-02-11T18:34:10.682Z,103527.13
2023-02-11T18:36:39.556Z,103588.69
2023-02-11T18:39:07.894Z,103579.94
2023-02-11T18:41:40.034Z,103590.06
2023-02-11T18:44:08.522Z,103584.28
2023-02-11T18:46:36.905Z,103587.03
2023-02-11T18:49:05.179Z,103578.16
2023-02-11T18:51:33.483Z,103589.84
2023-02-11T18:54:02.265Z,103582.44
2023-02-11T18:56:30.739Z,103583.25
2023-02-11T18:59:01.682Z,103572.72
2023-02-11T19:01:33.694Z,103587.84
2023-02-11T19:04:05.243Z,103596.13
2023-02-11T19:06:36.399Z,103593.09
2023-02-11T19:09:09.791Z,103593.31
2023-02-11T19:11:50.183Z,103597.00
2023-02-11T19:14:25.363Z,103600.69
2023-02-11T19:16:59.296Z,103595.22
2023-02-11T19:19:30.154Z,103586.19
2023-02-11T19:21:59.615Z,103593.66
2023-02-11T19:24:29.900Z,103588.19
2023-02-11T19:27:01.754Z,103592.53
2023-02-11T19:29:34.934Z,103591.72
2023-02-11T19:32:04.463Z,103588.78
2023-02-11T19:34:33.220Z,103586.91
2023-02-11T19:37:01.701Z,103597.06
2023-02-11T19:39:30.097Z,103598.00
2023-02-11T19:41:58.471Z,103593.88
2023-02-11T19:44:27.060Z,103598.13
2023-02-11T19:46:56.748Z,103602.47
2023-02-11T19:49:26.330Z,103605.66
2023-02-11T19:51:58.083Z,103607.66
2023-02-11T19:54:29.027Z,103615.13
2023-02-11T19:56:57.643Z,103607.31
2023-02-11T19:59:26.287Z,103609.81
2023-02-11T20:01:55.996Z,103624.53
2023-02-11T20:04:25.134Z,103614.50
2023-02-11T20:06:53.517Z,103541.44
2023-02-11T20:09:22.776Z,103609.81
2023-02-11T20:11:51.239Z,103585.59
2023-02-11T20:14:19.698Z,103614.00
2023-02-11T20:16:49.861Z,103619.34
2023-02-11T20:19:22.693Z,103616.94
2023-02-11T20:21:55.688Z,103607.00
2023-02-11T20:24:24.960Z,103625.88
2023-02-11T20:26:55.503Z,103634.91
2023-02-11T20:29:25.256Z,103634.91
2023-02-11T20:31:54.147Z,103645.75
2023-02-11T20:34:24.992Z,103645.97
2023-02-11T20:36:54.150Z,103654.84
2023-02-11T20:39:25.096Z,103652.97
2023-02-11T20:41:54.832Z,103659.28
2023-02-11T20:44:23.714Z,103650.34
2023-02-11T20:46:54.334Z,103656.31
2023-02-11T20:49:28.225Z,103638.25
2023-02-11T20:51:58.380Z,103658.09
2023-02-11T20:54:27.493Z,103657.34
2023-02-11T20:56:57.033Z,103658.88
2023-02-11T20:59:26.378Z,103670.31
2023-02-11T21:01:57.174Z,103662.47
2023-02-11T21:04:30.554Z,103668.78
2023-02-11T21:07:01.053Z,103686.53
2023-02-11T21:09:33.236Z,103673.09
2023-02-11T21:12:02.881Z,103677.47
2023-02-11T21:14:31.694Z,103676.66
2023-02-11T21:17:00.219Z,103647.13
2023-02-11T21:19:29.940Z,103676.66
2023-02-11T21:22:00.746Z,103676.84
2023-02-11T21:24:30.774Z,103684.75
2023-02-11T21:26:59.191Z,103683.16
2023-02-11T21:29:27.471Z,103680.44
2023-02-11T21:31:56.026Z,103688.72
2023-02-11T21:34:24.349Z,103674.34
2023-02-11T21:36:54.170Z,103702.88
2023-02-11T21:39:22.525Z,103701.03
2023-02-11T21:41:51.606Z,103705.44
2023-02-11T21:44:20.339Z,103705.31
2023-02-11T21:46:49.112Z,103691.84
2023-02-11T21:49:17.688Z,103700.97
2023-02-11T21:51:45.996Z,103699.94
2023-02-11T21:54:15.910Z,103703.31
2023-02-11T21:56:44.204Z,103712.09
2023-02-11T21:59:14.484Z,103708.44
2023-02-11T22:01:43.080Z,103712.41
2023-02-11T22:04:11.483Z,103708.84
2023-02-11T22:06:40.475Z,103717.00
2023-02-11T22:09:11.116Z,103717.09
2023-02-11T22:11:40.641Z,103717.94
2023-02-11T22:14:09.353Z,103711.56
2023-02-11T22:16:37.819Z,103709.13
2023-02-11T22:19:07.428Z,103701.16
2023-02-11T22:21:35.858Z,103710.13
2023-02-11T22:24:04.192Z,103710.22
2023-02-11T22:26:32.853Z,103712.00
2023-02-11T22:29:02.510Z,103711.78
2023-02-11T22:31:34.203Z,103715.34
2023-02-11T22:34:04.265Z,103710.94
2023-02-11T22:36:34.870Z,103711.72
2023-02-11T22:39:06.109Z,103692.84
2023-02-11T22:41:34.890Z,103704.78
2023-02-11T22:44:04.732Z,103709.13
2023-02-11T22:46:33.189Z,103712.75
2023-02-11T22:49:01.496Z,103711.59
2023-02-11T22:51:31.195Z,103705.38
2023-02-11T22:54:02.729Z,103710.53
2023-02-11T22:56:32.946Z,103709.09
2023-02-11T22:59:06.109Z,103695.50
2023-02-11T23:01:35.667Z,103711.03
2023-02-11T23:04:06.726Z,103636.22
2023-02-11T23:06:36.020Z,103704.00
2023-02-11T23:09:05.678Z,103713.06
2023-02-11T23:11:34.497Z,103716.44
2023-02-11T23:14:05.330Z,103699.38
2023-02-11T23:16:36.096Z,103720.13
2023-02-11T23:19:06.228Z,103726.13
2023-02-11T23:21:37.619Z,103727.66
2023-02-11T23:24:09.935Z,103723.97
2023-02-11T23:26:39.944Z,103660.59
2023-02-11T23:29:10.775Z,103689.88
2023-02-11T23:31:41.270Z,103728.84
2023-02-11T23:34:09.891Z,103727.09
2023-02-11T23:36:38.933Z,103726.81
2023-02-11T23:39:07.502Z,103729.63
2023-02-11T23:41:35.839Z,103726.13
2023-02-11T23:44:04.302Z,103723.25
2023-02-11T23:46:34.003Z,103725.19
2023-02-11T23:49:02.592Z,103729.06
2023-02-11T23:51:31.205Z,103626.19
2023-02-11T23:53:59.443Z,103730.97
2023-02-11T23:56:29.218Z,103721.66
2023-02-11T23:59:00.636Z,103696.22
